sensor_id;sensor_type;location;lat;lon;timestamp;P1;durP1;ratioP1;P2;durP2;ratioP2
23280;SDS011;11809;56.390;-3.266;2023-04-05T00:02:26;266.95;;;248.13;;
23280;SDS011;11809;56.390;-3.266;2023-04-05T00:04:55;252.27;;;235.48;;
23280;SDS011;11809;56.390;-3.266;2023-04-05T00:07:23;5.20;;;2.88;;
23280;SDS011;11809;56.390;-3.266;2023-04-05T00:09:51;3.63;;;2.53;;
23280;SDS011;11809;56.390;-3.266;2023-04-05T00:12:19;3.55;;;2.45;;
23280;SDS011;11809;56.390;-3.266;2023-04-05T00:14:46;5.20;;;2.58;;
23280;SDS011;11809;56.390;-3.266;2023-04-05T00:17:13;4.35;;;2.70;;
23280;SDS011;11809;56.390;-3.266;2023-04-05T00:19:41;7.20;;;2.63;;
23280;SDS011;11809;56.390;-3.266;2023-04-05T00:22:08;2.47;;;2.28;;
23280;SDS011;11809;56.390;-3.266;2023-04-05T00:24:36;3.92;;;2.33;;
23280;SDS011;11809;56.390;-3.266;2023-04-05T00:27:08;2.80;;;2.38;;
23280;SDS011;11809;56.390;-3.266;2023-04-05T00:29:35;3.55;;;2.38;;
23280;SDS011;11809;56.390;-3.266;2023-04-05T00:32:03;4.13;;;2.40;;
23280;SDS011;11809;56.390;-3.266;2023-04-05T00:34:30;3.90;;;2.20;;
23280;SDS011;11809;56.390;-3.266;2023-04-05T00:36:59;3.42;;;2.30;;
23280;SDS011;11809;56.390;-3.266;2023-04-05T00:39:26;3.15;;;2.22;;
23280;SDS011;11809;56.390;-3.266;2023-04-05T00:41:53;3.15;;;2.42;;
23280;SDS011;11809;56.390;-3.266;2023-04-05T00:44:20;2.60;;;2.30;;
23280;SDS011;11809;56.390;-3.266;2023-04-05T00:46:47;3.20;;;2.03;;
23280;SDS011;11809;56.390;-3.266;2023-04-05T00:49:14;3.45;;;2.38;;
23280;SDS011;11809;56.390;-3.266;2023-04-05T00:51:42;5.13;;;2.10;;
23280;SDS011;11809;56.390;-3.266;2023-04-05T00:54:09;3.80;;;2.30;;
23280;SDS011;11809;56.390;-3.266;2023-04-05T00:56:37;4.00;;;2.20;;
23280;SDS011;11809;56.390;-3.266;2023-04-05T00:59:05;3.33;;;2.20;;
23280;SDS011;11809;56.390;-3.266;2023-04-05T01:01:32;4.55;;;2.33;;
23280;SDS011;11809;56.390;-3.266;2023-04-05T01:04:03;4.00;;;2.00;;
23280;SDS011;11809;56.390;-3.266;2023-04-05T01:09:52;5.15;;;2.58;;
23280;SDS011;11809;56.390;-3.266;2023-04-05T01:12:23;561.78;;;511.17;;
23280;SDS011;11809;56.390;-3.266;2023-04-05T01:14:53;759.88;;;632.50;;
23280;SDS011;11809;56.390;-3.266;2023-04-05T01:17:21;765.88;;;649.03;;
23280;SDS011;11809;56.390;-3.266;2023-04-05T01:19:51;214.18;;;200.52;;
23280;SDS011;11809;56.390;-3.266;2023-04-05T01:22:45;2.78;;;1.67;;
23280;SDS011;11809;56.390;-3.266;2023-04-05T01:28:17;763.25;;;643.85;;
23280;SDS011;11809;56.390;-3.266;2023-04-05T01:30:48;259.15;;;242.73;;
23280;SDS011;11809;56.390;-3.266;2023-04-05T01:38:44;4.28;;;2.40;;
23280;SDS011;11809;56.390;-3.266;2023-04-05T01:41:15;3.00;;;2.00;;
23280;SDS011;11809;56.390;-3.266;2023-04-05T01:43:42;8.55;;;2.83;;
23280;SDS011;11809;56.390;-3.266;2023-04-05T01:46:09;3.63;;;2.10;;
23280;SDS011;11809;56.390;-3.266;2023-04-05T01:48:36;2.83;;;2.00;;
23280;SDS011;11809;56.390;-3.266;2023-04-05T01:51:03;4.47;;;2.03;;
23280;SDS011;11809;56.390;-3.266;2023-04-05T01:53:30;3.00;;;1.80;;
23280;SDS011;11809;56.390;-3.266;2023-04-05T01:56:00;2.08;;;1.80;;
23280;SDS011;11809;56.390;-3.266;2023-04-05T01:58:27;2.37;;;1.83;;
23280;SDS011;11809;56.390;-3.266;2023-04-05T02:00:55;2.10;;;1.90;;
23280;SDS011;11809;56.390;-3.266;2023-04-05T02:03:23;2.83;;;1.80;;
23280;SDS011;11809;56.390;-3.266;2023-04-05T02:05:50;2.35;;;2.15;;
23280;SDS011;11809;56.390;-3.266;2023-04-05T02:08:17;2.33;;;1.75;;
23280;SDS011;11809;56.390;-3.266;2023-04-05T02:10:44;2.42;;;1.80;;
23280;SDS011;11809;56.390;-3.266;2023-04-05T02:13:11;2.47;;;1.70;;
23280;SDS011;11809;56.390;-3.266;2023-04-05T02:15:39;2.63;;;1.80;;
23280;SDS011;11809;56.390;-3.266;2023-04-05T02:18:06;2.65;;;1.75;;
23280;SDS011;11809;56.390;-3.266;2023-04-05T02:20:34;2.42;;;2.00;;
23280;SDS011;11809;56.390;-3.266;2023-04-05T02:23:01;3.45;;;2.10;;
23280;SDS011;11809;56.390;-3.266;2023-04-05T02:25:29;2.67;;;1.75;;
23280;SDS011;11809;56.390;-3.266;2023-04-05T02:27:56;3.78;;;2.00;;
23280;SDS011;11809;56.390;-3.266;2023-04-05T02:30:22;2.85;;;2.08;;
23280;SDS011;11809;56.390;-3.266;2023-04-05T02:32:49;3.20;;;1.92;;
23280;SDS011;11809;56.390;-3.266;2023-04-05T02:35:16;2.80;;;1.90;;
23280;SDS011;11809;56.390;-3.266;2023-04-05T02:37:44;3.50;;;1.90;;
23280;SDS011;11809;56.390;-3.266;2023-04-05T02:40:11;3.85;;;2.00;;
23280;SDS011;11809;56.390;-3.266;2023-04-05T02:42:40;2.63;;;2.00;;
23280;SDS011;11809;56.390;-3.266;2023-04-05T02:45:07;2.67;;;2.00;;
23280;SDS011;11809;56.390;-3.266;2023-04-05T02:47:35;2.70;;;1.98;;
23280;SDS011;11809;56.390;-3.266;2023-04-05T02:50:02;3.13;;;1.70;;
23280;SDS011;11809;56.390;-3.266;2023-04-05T02:52:29;2.97;;;2.30;;
23280;SDS011;11809;56.390;-3.266;2023-04-05T02:54:57;2.45;;;1.90;;
23280;SDS011;11809;56.390;-3.266;2023-04-05T02:57:25;4.10;;;2.10;;
23280;SDS011;11809;56.390;-3.266;2023-04-05T02:59:52;3.42;;;2.13;;
23280;SDS011;11809;56.390;-3.266;2023-04-05T03:02:19;3.60;;;2.00;;
23280;SDS011;11809;56.390;-3.266;2023-04-05T03:04:46;2.78;;;1.90;;
23280;SDS011;11809;56.390;-3.266;2023-04-05T03:07:13;2.70;;;1.92;;
23280;SDS011;11809;56.390;-3.266;2023-04-05T03:09:44;3.35;;;2.15;;
23280;SDS011;11809;56.390;-3.266;2023-04-05T03:12:12;3.28;;;2.10;;
23280;SDS011;11809;56.390;-3.266;2023-04-05T03:14:39;3.17;;;2.15;;
23280;SDS011;11809;56.390;-3.266;2023-04-05T03:17:06;2.88;;;1.80;;
23280;SDS011;11809;56.390;-3.266;2023-04-05T03:19:33;2.17;;;1.95;;
23280;SDS011;11809;56.390;-3.266;2023-04-05T03:22:01;2.00;;;1.67;;
23280;SDS011;11809;56.390;-3.266;2023-04-05T03:24:28;4.10;;;2.17;;
23280;SDS011;11809;56.390;-3.266;2023-04-05T03:26:55;2.38;;;2.08;;
23280;SDS011;11809;56.390;-3.266;2023-04-05T03:29:22;2.22;;;2.00;;
23280;SDS011;11809;56.390;-3.266;2023-04-05T03:31:49;2.53;;;1.85;;
23280;SDS011;11809;56.390;-3.266;2023-04-05T03:34:16;3.58;;;2.00;;
23280;SDS011;11809;56.390;-3.266;2023-04-05T03:36:43;2.47;;;1.80;;
23280;SDS011;11809;56.390;-3.266;2023-04-05T03:39:11;3.17;;;1.83;;
23280;SDS011;11809;56.390;-3.266;2023-04-05T03:41:39;2.13;;;1.70;;
23280;SDS011;11809;56.390;-3.266;2023-04-05T03:44:07;3.78;;;1.98;;
23280;SDS011;11809;56.390;-3.266;2023-04-05T03:46:34;2.20;;;1.77;;
23280;SDS011;11809;56.390;-3.266;2023-04-05T03:49:03;2.25;;;1.77;;
23280;SDS011;11809;56.390;-3.266;2023-04-05T03:51:31;2.47;;;1.80;;
23280;SDS011;11809;56.390;-3.266;2023-04-05T03:53:58;1.88;;;1.77;;
23280;SDS011;11809;56.390;-3.266;2023-04-05T03:56:26;3.85;;;1.85;;
23280;SDS011;11809;56.390;-3.266;2023-04-05T03:58:53;2.95;;;1.70;;
23280;SDS011;11809;56.390;-3.266;2023-04-05T04:01:20;3.60;;;1.80;;
23280;SDS011;11809;56.390;-3.266;2023-04-05T04:03:47;2.40;;;1.75;;
23280;SDS011;11809;56.390;-3.266;2023-04-05T04:06:15;3.85;;;1.65;;
23280;SDS011;11809;56.390;-3.266;2023-04-05T04:08:44;2.42;;;1.83;;
23280;SDS011;11809;56.390;-3.266;2023-04-05T04:11:11;2.72;;;1.50;;
23280;SDS011;11809;56.390;-3.266;2023-04-05T04:13:38;2.42;;;1.80;;
23280;SDS011;11809;56.390;-3.266;2023-04-05T04:16:06;2.75;;;2.00;;
23280;SDS011;11809;56.390;-3.266;2023-04-05T04:18:33;2.75;;;1.67;;
23280;SDS011;11809;56.390;-3.266;2023-04-05T04:21:01;2.10;;;1.48;;
23280;SDS011;11809;56.390;-3.266;2023-04-05T04:23:32;2.72;;;1.67;;
23280;SDS011;11809;56.390;-3.266;2023-04-05T04:26:00;4.30;;;1.70;;
23280;SDS011;11809;56.390;-3.266;2023-04-05T04:28:28;14.23;;;2.33;;
23280;SDS011;11809;56.390;-3.266;2023-04-05T04:30:55;9.10;;;2.72;;
23280;SDS011;11809;56.390;-3.266;2023-04-05T04:33:22;6.15;;;2.17;;
23280;SDS011;11809;56.390;-3.266;2023-04-05T04:35:49;6.95;;;1.63;;
23280;SDS011;11809;56.390;-3.266;2023-04-05T04:38:20;7.82;;;1.65;;
23280;SDS011;11809;56.390;-3.266;2023-04-05T04:40:47;6.85;;;1.70;;
23280;SDS011;11809;56.390;-3.266;2023-04-05T04:43:16;8.15;;;1.98;;
23280;SDS011;11809;56.390;-3.266;2023-04-05T04:45:44;3.65;;;1.40;;
23280;SDS011;11809;56.390;-3.266;2023-04-05T04:48:14;32.95;;;3.20;;
23280;SDS011;11809;56.390;-3.266;2023-04-05T04:50:42;19.52;;;2.85;;
23280;SDS011;11809;56.390;-3.266;2023-04-05T04:53:10;57.83;;;4.65;;
23280;SDS011;11809;56.390;-3.266;2023-04-05T04:55:39;18.10;;;2.97;;
23280;SDS011;11809;56.390;-3.266;2023-04-05T04:58:09;27.10;;;2.83;;
23280;SDS011;11809;56.390;-3.266;2023-04-05T05:00:38;25.38;;;3.20;;
23280;SDS011;11809;56.390;-3.266;2023-04-05T05:03:06;15.98;;;3.05;;
23280;SDS011;11809;56.390;-3.266;2023-04-05T05:05:34;21.52;;;3.28;;
23280;SDS011;11809;56.390;-3.266;2023-04-05T05:08:01;38.03;;;4.50;;
23280;SDS011;11809;56.390;-3.266;2023-04-05T05:10:28;11.35;;;3.25;;
23280;SDS011;11809;56.390;-3.266;2023-04-05T05:12:55;28.10;;;3.70;;
23280;SDS011;11809;56.390;-3.266;2023-04-05T05:15:22;36.97;;;3.90;;
23280;SDS011;11809;56.390;-3.266;2023-04-05T05:17:49;18.20;;;3.35;;
23280;SDS011;11809;56.390;-3.266;2023-04-05T05:20:19;17.90;;;3.08;;
23280;SDS011;11809;56.390;-3.266;2023-04-05T05:22:46;21.17;;;3.35;;
23280;SDS011;11809;56.390;-3.266;2023-04-05T05:25:14;12.25;;;2.92;;
23280;SDS011;11809;56.390;-3.266;2023-04-05T05:27:41;17.40;;;3.63;;
23280;SDS011;11809;56.390;-3.266;2023-04-05T05:30:08;20.42;;;3.50;;
23280;SDS011;11809;56.390;-3.266;2023-04-05T05:32:35;16.48;;;2.67;;
23280;SDS011;11809;56.390;-3.266;2023-04-05T05:35:02;27.60;;;3.42;;
23280;SDS011;11809;56.390;-3.266;2023-04-05T05:37:30;25.77;;;3.60;;
23280;SDS011;11809;56.390;-3.266;2023-04-05T05:39:58;18.67;;;3.40;;
23280;SDS011;11809;56.390;-3.266;2023-04-05T05:42:25;15.43;;;3.38;;
23280;SDS011;11809;56.390;-3.266;2023-04-05T05:44:52;14.13;;;3.50;;
23280;SDS011;11809;56.390;-3.266;2023-04-05T05:47:20;16.48;;;3.35;;
23280;SDS011;11809;56.390;-3.266;2023-04-05T05:49:47;16.58;;;3.88;;
23280;SDS011;11809;56.390;-3.266;2023-04-05T05:52:15;10.65;;;2.72;;
23280;SDS011;11809;56.390;-3.266;2023-04-05T05:54:42;19.98;;;3.00;;
23280;SDS011;11809;56.390;-3.266;2023-04-05T05:57:09;11.35;;;2.97;;
23280;SDS011;11809;56.390;-3.266;2023-04-05T05:59:36;12.57;;;2.55;;
23280;SDS011;11809;56.390;-3.266;2023-04-05T06:02:03;11.68;;;2.40;;
23280;SDS011;11809;56.390;-3.266;2023-04-05T06:04:30;8.70;;;2.10;;
23280;SDS011;11809;56.390;-3.266;2023-04-05T06:06:57;8.35;;;1.98;;
23280;SDS011;11809;56.390;-3.266;2023-04-05T06:09:25;9.90;;;2.47;;
23280;SDS011;11809;56.390;-3.266;2023-04-05T06:11:52;8.45;;;1.92;;
23280;SDS011;11809;56.390;-3.266;2023-04-05T06:14:23;6.43;;;2.37;;
23280;SDS011;11809;56.390;-3.266;2023-04-05T06:16:50;4.20;;;1.50;;
23280;SDS011;11809;56.390;-3.266;2023-04-05T06:19:18;6.20;;;1.92;;
23280;SDS011;11809;56.390;-3.266;2023-04-05T06:21:45;3.88;;;1.90;;
23280;SDS011;11809;56.390;-3.266;2023-04-05T06:24:12;2.85;;;1.80;;
23280;SDS011;11809;56.390;-3.266;2023-04-05T06:26:39;5.97;;;2.20;;
23280;SDS011;11809;56.390;-3.266;2023-04-05T06:29:06;11.07;;;3.03;;
23280;SDS011;11809;56.390;-3.266;2023-04-05T06:31:34;10.35;;;4.95;;
23280;SDS011;11809;56.390;-3.266;2023-04-05T06:34:01;14.93;;;5.82;;
23280;SDS011;11809;56.390;-3.266;2023-04-05T06:36:29;15.95;;;5.28;;
23280;SDS011;11809;56.390;-3.266;2023-04-05T06:39:00;12.15;;;4.82;;
23280;SDS011;11809;56.390;-3.266;2023-04-05T06:41:27;8.52;;;4.20;;
23280;SDS011;11809;56.390;-3.266;2023-04-05T06:43:54;6.85;;;3.55;;
23280;SDS011;11809;56.390;-3.266;2023-04-05T06:46:22;7.60;;;3.25;;
23280;SDS011;11809;56.390;-3.266;2023-04-05T06:48:50;12.15;;;3.65;;
23280;SDS011;11809;56.390;-3.266;2023-04-05T06:51:18;10.90;;;3.15;;
23280;SDS011;11809;56.390;-3.266;2023-04-05T06:53:46;10.15;;;3.10;;
23280;SDS011;11809;56.390;-3.266;2023-04-05T06:56:13;9.10;;;2.58;;
23280;SDS011;11809;56.390;-3.266;2023-04-05T06:58:40;8.35;;;3.00;;
23280;SDS011;11809;56.390;-3.266;2023-04-05T07:01:07;4.68;;;2.80;;
23280;SDS011;11809;56.390;-3.266;2023-04-05T07:03:34;4.35;;;2.40;;
23280;SDS011;11809;56.390;-3.266;2023-04-05T07:06:01;5.25;;;2.90;;
23280;SDS011;11809;56.390;-3.266;2023-04-05T07:08:30;6.43;;;2.65;;
23280;SDS011;11809;56.390;-3.266;2023-04-05T07:10:58;3.53;;;2.30;;
23280;SDS011;11809;56.390;-3.266;2023-04-05T07:13:25;5.85;;;2.50;;
23280;SDS011;11809;56.390;-3.266;2023-04-05T07:15:58;4.72;;;2.67;;
23280;SDS011;11809;56.390;-3.266;2023-04-05T07:18:27;3.92;;;2.10;;
23280;SDS011;11809;56.390;-3.266;2023-04-05T07:20:56;4.50;;;2.10;;
23280;SDS011;11809;56.390;-3.266;2023-04-05T07:23:27;4.88;;;2.20;;
23280;SDS011;11809;56.390;-3.266;2023-04-05T07:25:59;3.42;;;2.25;;
23280;SDS011;11809;56.390;-3.266;2023-04-05T07:28:31;2.47;;;2.05;;
23280;SDS011;11809;56.390;-3.266;2023-04-05T07:30:59;5.32;;;2.08;;
23280;SDS011;11809;56.390;-3.266;2023-04-05T07:33:26;2.60;;;2.20;;
23280;SDS011;11809;56.390;-3.266;2023-04-05T07:35:53;2.20;;;2.00;;
23280;SDS011;11809;56.390;-3.266;2023-04-05T07:38:22;3.05;;;2.10;;
23280;SDS011;11809;56.390;-3.266;2023-04-05T07:40:50;2.47;;;2.10;;
23280;SDS011;11809;56.390;-3.266;2023-04-05T07:43:17;2.92;;;1.83;;
23280;SDS011;11809;56.390;-3.266;2023-04-05T07:45:45;3.75;;;2.20;;
23280;SDS011;11809;56.390;-3.266;2023-04-05T07:48:12;2.25;;;2.05;;
23280;SDS011;11809;56.390;-3.266;2023-04-05T07:50:39;2.33;;;2.10;;
23280;SDS011;11809;56.390;-3.266;2023-04-05T07:53:08;3.20;;;2.40;;
23280;SDS011;11809;56.390;-3.266;2023-04-05T07:55:38;2.33;;;2.10;;
23280;SDS011;11809;56.390;-3.266;2023-04-05T07:58:05;3.22;;;2.28;;
23280;SDS011;11809;56.390;-3.266;2023-04-05T08:00:32;2.63;;;1.85;;
23280;SDS011;11809;56.390;-3.266;2023-04-05T08:02:59;3.97;;;1.90;;
23280;SDS011;11809;56.390;-3.266;2023-04-05T08:05:27;2.92;;;1.77;;
23280;SDS011;11809;56.390;-3.266;2023-04-05T08:07:55;2.05;;;1.95;;
23280;SDS011;11809;56.390;-3.266;2023-04-05T08:10:23;2.40;;;2.00;;
23280;SDS011;11809;56.390;-3.266;2023-04-05T08:12:52;3.38;;;2.20;;
23280;SDS011;11809;56.390;-3.266;2023-04-05T08:15:19;4.03;;;2.00;;
23280;SDS011;11809;56.390;-3.266;2023-04-05T08:17:46;3.40;;;1.80;;
23280;SDS011;11809;56.390;-3.266;2023-04-05T08:20:13;3.15;;;1.92;;
23280;SDS011;11809;56.390;-3.266;2023-04-05T08:22:41;2.20;;;1.83;;
23280;SDS011;11809;56.390;-3.266;2023-04-05T08:25:08;3.50;;;1.77;;
23280;SDS011;11809;56.390;-3.266;2023-04-05T08:27:36;1.77;;;1.60;;
23280;SDS011;11809;56.390;-3.266;2023-04-05T08:30:03;4.10;;;1.73;;
23280;SDS011;11809;56.390;-3.266;2023-04-05T08:32:32;2.55;;;1.80;;
23280;SDS011;11809;56.390;-3.266;2023-04-05T08:34:59;1.88;;;1.73;;
23280;SDS011;11809;56.390;-3.266;2023-04-05T08:37:27;2.88;;;1.70;;
23280;SDS011;11809;56.390;-3.266;2023-04-05T08:39:54;2.10;;;1.70;;
23280;SDS011;11809;56.390;-3.266;2023-04-05T08:43:06;2.00;;;1.70;;
23280;SDS011;11809;56.390;-3.266;2023-04-05T08:45:18;2.13;;;1.88;;
23280;SDS011;11809;56.390;-3.266;2023-04-05T08:47:48;1.92;;;1.58;;
23280;SDS011;11809;56.390;-3.266;2023-04-05T08:50:18;3.25;;;1.90;;
23280;SDS011;11809;56.390;-3.266;2023-04-05T08:52:45;3.22;;;2.10;;
23280;SDS011;11809;56.390;-3.266;2023-04-05T08:55:15;1.83;;;1.70;;
23280;SDS011;11809;56.390;-3.266;2023-04-05T08:57:43;1.70;;;1.60;;
23280;SDS011;11809;56.390;-3.266;2023-04-05T09:00:16;2.30;;;1.75;;
23280;SDS011;11809;56.390;-3.266;2023-04-05T09:02:46;2.13;;;1.90;;
23280;SDS011;11809;56.390;-3.266;2023-04-05T09:05:17;1.83;;;1.50;;
23280;SDS011;11809;56.390;-3.266;2023-04-05T09:07:46;1.70;;;1.60;;
23280;SDS011;11809;56.390;-3.266;2023-04-05T09:10:14;3.13;;;1.90;;
23280;SDS011;11809;56.390;-3.266;2023-04-05T09:12:44;2.30;;;1.45;;
23280;SDS011;11809;56.390;-3.266;2023-04-05T09:15:11;1.50;;;1.40;;
23280;SDS011;11809;56.390;-3.266;2023-04-05T09:17:40;2.45;;;1.70;;
23280;SDS011;11809;56.390;-3.266;2023-04-05T09:20:09;1.58;;;1.40;;
23280;SDS011;11809;56.390;-3.266;2023-04-05T09:22:43;2.25;;;1.70;;
23280;SDS011;11809;56.390;-3.266;2023-04-05T09:25:57;3.05;;;1.63;;
23280;SDS011;11809;56.390;-3.266;2023-04-05T09:28:07;1.63;;;1.45;;
23280;SDS011;11809;56.390;-3.266;2023-04-05T09:30:37;2.20;;;1.65;;
23280;SDS011;11809;56.390;-3.266;2023-04-05T09:33:10;1.50;;;1.40;;
23280;SDS011;11809;56.390;-3.266;2023-04-05T09:35:44;1.50;;;1.40;;
23280;SDS011;11809;56.390;-3.266;2023-04-05T09:38:16;2.67;;;1.50;;
23280;SDS011;11809;56.390;-3.266;2023-04-05T09:40:45;1.60;;;1.35;;
23280;SDS011;11809;56.390;-3.266;2023-04-05T09:49:05;3.75;;;1.30;;
23280;SDS011;11809;56.390;-3.266;2023-04-05T09:51:35;2.25;;;1.40;;
23280;SDS011;11809;56.390;-3.266;2023-04-05T09:54:08;1.60;;;1.30;;
23280;SDS011;11809;56.390;-3.266;2023-04-05T09:56:37;2.25;;;1.23;;
23280;SDS011;11809;56.390;-3.266;2023-04-05T09:59:19;1.10;;;1.00;;
23280;SDS011;11809;56.390;-3.266;2023-04-05T10:01:50;1.50;;;1.20;;
23280;SDS011;11809;56.390;-3.266;2023-04-05T10:04:18;1.73;;;1.42;;
23280;SDS011;11809;56.390;-3.266;2023-04-05T10:06:45;1.65;;;1.20;;
23280;SDS011;11809;56.390;-3.266;2023-04-05T10:09:12;1.05;;;1.05;;
23280;SDS011;11809;56.390;-3.266;2023-04-05T10:11:41;1.63;;;1.15;;
23280;SDS011;11809;56.390;-3.266;2023-04-05T10:14:10;1.30;;;1.20;;
23280;SDS011;11809;56.390;-3.266;2023-04-05T10:19:58;2.03;;;1.10;;
23280;SDS011;11809;56.390;-3.266;2023-04-05T10:22:27;1.42;;;1.33;;
23280;SDS011;11809;56.390;-3.266;2023-04-05T10:25:02;1.40;;;1.30;;
23280;SDS011;11809;56.390;-3.266;2023-04-05T10:27:41;2.25;;;1.55;;
23280;SDS011;11809;56.390;-3.266;2023-04-05T10:30:14;1.67;;;1.48;;
23280;SDS011;11809;56.390;-3.266;2023-04-05T10:32:53;1.55;;;1.45;;
23280;SDS011;11809;56.390;-3.266;2023-04-05T10:36:26;1.50;;;1.40;;
23280;SDS011;11809;56.390;-3.266;2023-04-05T10:41:19;1.60;;;1.50;;
23280;SDS011;11809;56.390;-3.266;2023-04-05T10:43:47;2.72;;;1.67;;
23280;SDS011;11809;56.390;-3.266;2023-04-05T10:46:18;2.20;;;1.70;;
23280;SDS011;11809;56.390;-3.266;2023-04-05T10:51:24;1.70;;;1.58;;
23280;SDS011;11809;56.390;-3.266;2023-04-05T10:53:52;2.15;;;1.65;;
23280;SDS011;11809;56.390;-3.266;2023-04-05T10:56:21;1.55;;;1.42;;
23280;SDS011;11809;56.390;-3.266;2023-04-05T10:58:50;2.53;;;1.50;;
23280;SDS011;11809;56.390;-3.266;2023-04-05T11:01:19;1.83;;;1.70;;
23280;SDS011;11809;56.390;-3.266;2023-04-05T11:03:49;1.70;;;1.60;;
23280;SDS011;11809;56.390;-3.266;2023-04-05T11:06:22;1.80;;;1.70;;
23280;SDS011;11809;56.390;-3.266;2023-04-05T11:08:57;1.65;;;1.55;;
23280;SDS011;11809;56.390;-3.266;2023-04-05T11:11:26;1.50;;;1.40;;
23280;SDS011;11809;56.390;-3.266;2023-04-05T11:14:15;11.10;;;2.05;;
23280;SDS011;11809;56.390;-3.266;2023-04-05T11:16:45;21.25;;;2.40;;
23280;SDS011;11809;56.390;-3.266;2023-04-05T11:19:16;9.00;;;1.70;;
23280;SDS011;11809;56.390;-3.266;2023-04-05T11:21:44;7.60;;;1.80;;
23280;SDS011;11809;56.390;-3.266;2023-04-05T11:24:12;6.45;;;1.85;;
23280;SDS011;11809;56.390;-3.266;2023-04-05T11:29:16;4.70;;;1.70;;
23280;SDS011;11809;56.390;-3.266;2023-04-05T11:31:56;31.70;;;2.60;;
23280;SDS011;11809;56.390;-3.266;2023-04-05T11:34:25;10.55;;;2.47;;
23280;SDS011;11809;56.390;-3.266;2023-04-05T11:36:52;25.80;;;3.17;;
23280;SDS011;11809;56.390;-3.266;2023-04-05T11:44:43;18.43;;;2.50;;
23280;SDS011;11809;56.390;-3.266;2023-04-05T11:47:17;11.77;;;2.45;;
23280;SDS011;11809;56.390;-3.266;2023-04-05T11:49:50;11.05;;;2.38;;
23280;SDS011;11809;56.390;-3.266;2023-04-05T11:52:18;6.82;;;2.15;;
23280;SDS011;11809;56.390;-3.266;2023-04-05T11:54:47;19.58;;;2.65;;
23280;SDS011;11809;56.390;-3.266;2023-04-05T11:57:20;7.55;;;2.10;;
23280;SDS011;11809;56.390;-3.266;2023-04-05T11:59:49;13.15;;;2.00;;
23280;SDS011;11809;56.390;-3.266;2023-04-05T12:02:17;12.98;;;2.15;;
23280;SDS011;11809;56.390;-3.266;2023-04-05T12:04:52;8.35;;;2.00;;
23280;SDS011;11809;56.390;-3.266;2023-04-05T12:07:26;8.70;;;2.03;;
23280;SDS011;11809;56.390;-3.266;2023-04-05T12:09:55;12.77;;;2.08;;
23280;SDS011;11809;56.390;-3.266;2023-04-05T12:12:36;10.38;;;2.17;;
23280;SDS011;11809;56.390;-3.266;2023-04-05T12:15:09;5.43;;;1.90;;
23280;SDS011;11809;56.390;-3.266;2023-04-05T12:17:44;3.70;;;1.77;;
23280;SDS011;11809;56.390;-3.266;2023-04-05T12:20:23;5.57;;;1.67;;
23280;SDS011;11809;56.390;-3.266;2023-04-05T12:22:52;3.58;;;1.45;;
23280;SDS011;11809;56.390;-3.266;2023-04-05T12:25:21;3.75;;;1.70;;
23280;SDS011;11809;56.390;-3.266;2023-04-05T12:27:49;2.88;;;1.40;;
23280;SDS011;11809;56.390;-3.266;2023-04-05T12:30:20;3.20;;;1.27;;
23280;SDS011;11809;56.390;-3.266;2023-04-05T12:32:54;2.97;;;1.80;;
23280;SDS011;11809;56.390;-3.266;2023-04-05T12:35:24;6.82;;;1.50;;
23280;SDS011;11809;56.390;-3.266;2023-04-05T12:37:58;2.33;;;1.70;;
23280;SDS011;11809;56.390;-3.266;2023-04-05T12:40:32;5.10;;;1.38;;
23280;SDS011;11809;56.390;-3.266;2023-04-05T12:43:01;3.83;;;1.65;;
23280;SDS011;11809;56.390;-3.266;2023-04-05T12:45:30;2.40;;;1.58;;
23280;SDS011;11809;56.390;-3.266;2023-04-05T12:48:07;4.20;;;1.55;;
23280;SDS011;11809;56.390;-3.266;2023-04-05T12:50:39;12.45;;;1.60;;
23280;SDS011;11809;56.390;-3.266;2023-04-05T12:53:14;16.00;;;2.03;;
23280;SDS011;11809;56.390;-3.266;2023-04-05T12:55:52;7.30;;;1.80;;
23280;SDS011;11809;56.390;-3.266;2023-04-05T12:58:36;14.45;;;2.50;;
23280;SDS011;11809;56.390;-3.266;2023-04-05T13:01:03;7.72;;;2.00;;
23280;SDS011;11809;56.390;-3.266;2023-04-05T13:03:31;10.57;;;3.10;;
23280;SDS011;11809;56.390;-3.266;2023-04-05T13:06:02;109.68;;;56.25;;
23280;SDS011;11809;56.390;-3.266;2023-04-05T13:08:29;197.02;;;109.32;;
23280;SDS011;11809;56.390;-3.266;2023-04-05T13:10:56;220.75;;;131.40;;
23280;SDS011;11809;56.390;-3.266;2023-04-05T13:13:23;192.73;;;119.20;;
23280;SDS011;11809;56.390;-3.266;2023-04-05T13:15:51;185.18;;;113.03;;
23280;SDS011;11809;56.390;-3.266;2023-04-05T13:18:18;160.23;;;102.50;;
23280;SDS011;11809;56.390;-3.266;2023-04-05T13:20:46;121.10;;;78.15;;
23280;SDS011;11809;56.390;-3.266;2023-04-05T13:23:13;113.35;;;69.80;;
23280;SDS011;11809;56.390;-3.266;2023-04-05T13:25:41;101.93;;;62.78;;
23280;SDS011;11809;56.390;-3.266;2023-04-05T13:28:11;96.00;;;56.10;;
23280;SDS011;11809;56.390;-3.266;2023-04-05T13:30:38;84.75;;;49.80;;
23280;SDS011;11809;56.390;-3.266;2023-04-05T13:33:05;89.80;;;47.65;;
23280;SDS011;11809;56.390;-3.266;2023-04-05T13:35:32;130.38;;;50.35;;
23280;SDS011;11809;56.390;-3.266;2023-04-05T13:37:59;137.45;;;42.17;;
23280;SDS011;11809;56.390;-3.266;2023-04-05T13:40:30;84.67;;;36.93;;
23280;SDS011;11809;56.390;-3.266;2023-04-05T13:42:58;66.25;;;34.95;;
23280;SDS011;11809;56.390;-3.266;2023-04-05T13:45:25;61.95;;;32.35;;
23280;SDS011;11809;56.390;-3.266;2023-04-05T13:47:53;66.47;;;32.22;;
23280;SDS011;11809;56.390;-3.266;2023-04-05T13:50:21;60.08;;;27.73;;
23280;SDS011;11809;56.390;-3.266;2023-04-05T13:52:49;49.60;;;27.38;;
23280;SDS011;11809;56.390;-3.266;2023-04-05T13:55:17;60.72;;;26.30;;
23280;SDS011;11809;56.390;-3.266;2023-04-05T13:57:45;46.88;;;25.23;;
23280;SDS011;11809;56.390;-3.266;2023-04-05T14:00:12;42.15;;;22.17;;
23280;SDS011;11809;56.390;-3.266;2023-04-05T14:02:40;41.25;;;21.35;;
23280;SDS011;11809;56.390;-3.266;2023-04-05T14:05:08;37.05;;;19.88;;
23280;SDS011;11809;56.390;-3.266;2023-04-05T14:07:35;32.65;;;18.02;;
23280;SDS011;11809;56.390;-3.266;2023-04-05T14:10:03;35.78;;;18.95;;
23280;SDS011;11809;56.390;-3.266;2023-04-05T14:12:32;35.65;;;17.85;;
23280;SDS011;11809;56.390;-3.266;2023-04-05T14:14:59;25.58;;;16.52;;
23280;SDS011;11809;56.390;-3.266;2023-04-05T14:17:27;36.80;;;14.70;;
23280;SDS011;11809;56.390;-3.266;2023-04-05T14:19:54;29.02;;;14.98;;
23280;SDS011;11809;56.390;-3.266;2023-04-05T14:22:23;20.20;;;12.38;;
23280;SDS011;11809;56.390;-3.266;2023-04-05T14:24:50;19.15;;;11.68;;
23280;SDS011;11809;56.390;-3.266;2023-04-05T14:27:17;48.60;;;12.63;;
23280;SDS011;11809;56.390;-3.266;2023-04-05T14:29:49;41.00;;;12.82;;
23280;SDS011;11809;56.390;-3.266;2023-04-05T14:32:18;39.78;;;11.23;;
23280;SDS011;11809;56.390;-3.266;2023-04-05T14:34:45;33.67;;;10.80;;
23280;SDS011;11809;56.390;-3.266;2023-04-05T14:37:12;31.35;;;10.13;;
23280;SDS011;11809;56.390;-3.266;2023-04-05T14:39:40;16.15;;;8.60;;
23280;SDS011;11809;56.390;-3.266;2023-04-05T14:42:08;27.05;;;8.48;;
23280;SDS011;11809;56.390;-3.266;2023-04-05T14:44:35;41.78;;;8.95;;
23280;SDS011;11809;56.390;-3.266;2023-04-05T14:47:03;47.10;;;8.25;;
23280;SDS011;11809;56.390;-3.266;2023-04-05T14:49:30;30.30;;;8.05;;
23280;SDS011;11809;56.390;-3.266;2023-04-05T14:51:57;31.50;;;7.03;;
23280;SDS011;11809;56.390;-3.266;2023-04-05T14:54:24;31.17;;;7.28;;
23280;SDS011;11809;56.390;-3.266;2023-04-05T14:56:52;28.65;;;6.78;;
23280;SDS011;11809;56.390;-3.266;2023-04-05T14:59:19;26.67;;;6.38;;
23280;SDS011;11809;56.390;-3.266;2023-04-05T15:01:46;22.60;;;5.90;;
23280;SDS011;11809;56.390;-3.266;2023-04-05T15:04:14;22.00;;;6.50;;
23280;SDS011;11809;56.390;-3.266;2023-04-05T15:06:41;25.27;;;5.65;;
23280;SDS011;11809;56.390;-3.266;2023-04-05T15:09:08;32.42;;;6.30;;
23280;SDS011;11809;56.390;-3.266;2023-04-05T15:11:36;22.77;;;5.47;;
23280;SDS011;11809;56.390;-3.266;2023-04-05T15:14:05;29.13;;;5.43;;